Time;durP1;ratioP1;P1;durP2;ratioP2;P2;SDS_P1;SDS_P2;PMS_P1;PMS_P2;Temp;Humidity;BMP_temperature;BMP_pressure;BME280_temperature;BME280_humidity;BME280_pressure;Samples;Min_cycle;Max_cycle;Signal;HPM_P1;HPM_P2
2021/08/25 00:02:21;;;;;;;8.00;4.95;;;10.70;99.90;;;;;;5034460;28;20021;-80
2021/08/25 00:04:47;;;;;;;8.63;5.32;;;10.70;99.90;;;;;;5032966;28;20516;-80
2021/08/25 00:07:12;;;;;;;14.07;7.95;;;10.70;99.90;;;;;;5034297;28;20032;-80
2021/08/25 00:09:40;;;;;;;14.57;8.05;;;10.70;99.90;;;;;;5042445;28;20020;-80
2021/08/25 00:12:07;;;;;;;13.23;7.53;;;10.70;99.90;;;;;;5054232;28;20025;-80
2021/08/25 00:14:34;;;;;;;10.27;6.95;;;10.70;99.90;;;;;;5052781;28;20018;-80
2021/08/25 00:17:00;;;;;;;10.88;7.18;;;10.80;99.90;;;;;;5052824;28;20061;-80
2021/08/25 00:19:25;;;;;;;6.75;5.63;;;10.80;99.90;;;;;;5048488;28;20052;-80
2021/08/25 00:21:51;;;;;;;11.20;7.63;;;10.80;99.90;;;;;;5034153;28;20486;-80
2021/08/25 00:24:16;;;;;;;9.57;6.40;;;10.80;99.90;;;;;;5033840;28;20640;-80
2021/08/25 00:26:46;;;;;;;12.18;6.22;;;10.80;99.90;;;;;;5033992;28;20508;-80
2021/08/25 00:29:13;;;;;;;10.20;6.78;;;10.80;99.90;;;;;;5033980;28;20127;-79
2021/08/25 00:31:38;;;;;;;9.35;6.40;;;10.70;99.90;;;;;;5053059;28;20025;-80
2021/08/25 00:34:04;;;;;;;17.45;8.18;;;10.70;99.90;;;;;;5053631;28;20021;-80
2021/08/25 00:36:29;;;;;;;11.20;8.35;;;10.70;99.90;;;;;;5053687;28;20021;-80
2021/08/25 00:38:55;;;;;;;8.88;7.32;;;10.70;99.90;;;;;;5053717;28;20039;-80
2021/08/25 00:41:20;;;;;;;12.00;8.80;;;10.70;99.90;;;;;;5039299;28;20037;-80
2021/08/25 00:43:46;;;;;;;10.68;7.88;;;10.70;99.90;;;;;;5033492;28;20029;-80
2021/08/25 00:46:12;;;;;;;12.68;8.80;;;10.70;99.90;;;;;;5032291;28;20021;-80
2021/08/25 00:48:37;;;;;;;13.93;9.57;;;10.70;99.90;;;;;;5033584;28;20112;-80
2021/08/25 00:51:03;;;;;;;19.55;9.45;;;10.70;99.90;;;;;;5042131;28;20025;-80
2021/08/25 00:53:28;;;;;;;14.25;9.38;;;10.70;99.90;;;;;;5053346;28;20021;-80
2021/08/25 00:55:55;;;;;;;13.82;9.73;;;10.70;99.90;;;;;;5053102;28;20029;-80
2021/08/25 00:58:21;;;;;;;14.05;9.20;;;10.70;99.90;;;;;;5037840;28;20094;-80
2021/08/25 01:01:06;;;;;;;12.35;8.95;;;10.70;99.90;;;;;;5031995;28;20108;-80
2021/08/25 01:03:39;;;;;;;12.45;7.60;;;10.60;99.90;;;;;;5033348;28;20390;-79
2021/08/25 01:06:06;;;;;;;12.07;8.20;;;10.50;99.90;;;;;;5033004;28;20021;-80
2021/08/25 01:08:32;;;;;;;13.40;9.48;;;10.50;99.90;;;;;;5046324;28;20032;-80
2021/08/25 01:11:05;;;;;;;12.93;9.32;;;10.60;99.90;;;;;;5052841;28;20021;-80
2021/08/25 01:13:31;;;;;;;13.18;9.13;;;10.60;99.90;;;;;;5053085;28;20021;-80
2021/08/25 01:15:56;;;;;;;13.75;9.82;;;10.70;99.90;;;;;;5052705;28;20029;-80
2021/08/25 01:18:23;;;;;;;13.77;9.90;;;10.70;99.90;;;;;;5043475;28;20029;-80
2021/08/25 01:20:50;;;;;;;12.77;9.80;;;10.70;99.90;;;;;;5033058;28;20025;-80
2021/08/25 01:23:19;;;;;;;15.10;9.63;;;10.70;99.90;;;;;;5032930;28;20036;-79
2021/08/25 01:25:47;;;;;;;15.30;10.00;;;10.70;99.90;;;;;;5032629;28;20061;-80
2021/08/25 01:28:18;;;;;;;16.25;9.90;;;10.70;99.90;;;;;;5037548;28;20087;-80
2021/08/25 01:30:45;;;;;;;15.73;9.65;;;10.80;99.90;;;;;;5052813;28;20025;-80
2021/08/25 01:33:37;;;;;;;14.85;9.18;;;10.80;99.90;;;;;;5051381;28;20438;-80
2021/08/25 01:36:03;;;;;;;12.95;7.65;;;10.90;99.90;;;;;;5051311;28;20037;-80
2021/08/25 01:38:33;;;;;;;13.73;7.47;;;10.90;99.90;;;;;;5046722;28;20708;-79
2021/08/25 01:41:00;;;;;;;12.80;7.40;;;10.90;99.90;;;;;;5031400;28;20413;-80
2021/08/25 01:43:25;;;;;;;12.95;7.13;;;11.00;99.90;;;;;;5032648;28;20097;-80
2021/08/25 01:45:51;;;;;;;11.52;7.43;;;11.00;99.90;;;;;;5031011;28;20116;-80
2021/08/25 01:48:17;;;;;;;11.98;7.97;;;11.00;99.90;;;;;;5032250;28;20497;-80
2021/08/25 01:50:42;;;;;;;10.68;7.22;;;11.10;99.90;;;;;;5046425;28;20035;-80
2021/08/25 01:53:08;;;;;;;18.55;8.40;;;11.20;99.90;;;;;;5031157;28;20021;-80
2021/08/25 01:55:33;;;;;;;9.00;7.30;;;11.30;99.90;;;;;;5030842;28;20029;-80
2021/08/25 01:58:27;;;;;;;14.55;6.88;;;11.30;99.90;;;;;;5032294;28;20041;-80
2021/08/25 02:00:52;;;;;;;12.98;7.35;;;11.40;99.90;;;;;;5049114;28;20048;-80
2021/08/25 02:03:18;;;;;;;16.83;7.18;;;11.40;99.90;;;;;;5052079;28;20033;-80
2021/08/25 02:05:43;;;;;;;17.30;7.80;;;11.40;99.90;;;;;;5051909;28;20108;-80
2021/08/25 02:08:11;;;;;;;12.32;7.30;;;11.50;99.90;;;;;;5051937;28;20072;-80
2021/08/25 02:10:37;;;;;;;8.63;6.32;;;11.50;99.90;;;;;;5038457;28;20337;-80
2021/08/25 02:13:03;;;;;;;12.40;7.00;;;11.50;99.90;;;;;;5031532;28;20052;-80
2021/08/25 02:15:29;;;;;;;7.38;6.22;;;11.50;99.90;;;;;;5030579;28;20116;-80
2021/08/25 02:17:54;;;;;;;11.18;6.72;;;11.60;99.90;;;;;;5031900;28;20036;-80
2021/08/25 02:20:20;;;;;;;16.15;6.85;;;11.60;99.90;;;;;;5038607;28;20025;-80
2021/08/25 02:22:45;;;;;;;12.07;8.23;;;11.60;99.90;;;;;;5051867;28;20026;-80
2021/08/25 02:25:11;;;;;;;18.67;8.25;;;11.60;99.90;;;;;;5051604;28;20087;-80
2021/08/25 02:27:36;;;;;;;14.93;6.78;;;11.70;99.90;;;;;;5051557;28;20033;-80
2021/08/25 02:30:03;;;;;;;9.80;5.97;;;11.70;99.90;;;;;;5047581;28;20070;-80
2021/08/25 02:32:28;;;;;;;12.45;7.70;;;11.80;99.90;;;;;;5030479;28;20481;-80
2021/08/25 02:34:54;;;;;;;14.27;7.82;;;11.80;99.90;;;;;;5031693;28;20032;-80
2021/08/25 02:37:19;;;;;;;14.35;6.75;;;11.90;99.90;;;;;;5030462;28;20112;-80
2021/08/25 02:39:45;;;;;;;12.27;6.63;;;11.90;99.90;;;;;;5030509;28;20465;-80
2021/08/25 02:42:12;;;;;;;10.18;6.85;;;12.00;99.90;;;;;;5046126;28;20029;-80
2021/08/25 02:44:38;;;;;;;11.65;7.22;;;12.00;99.90;;;;;;5051391;28;20025;-79
2021/08/25 02:47:04;;;;;;;14.95;7.70;;;12.10;99.90;;;;;;5051424;28;20021;-79
2021/08/25 02:49:29;;;;;;;24.90;8.52;;;12.20;99.90;;;;;;5051577;28;20070;-80
2021/08/25 02:51:55;;;;;;;19.13;9.50;;;12.40;99.90;;;;;;5037546;28;20112;-80
2021/08/25 02:54:20;;;;;;;14.23;9.50;;;12.60;99.90;;;;;;5031455;28;20032;-80
2021/08/25 02:56:46;;;;;;;22.48;11.23;;;12.80;99.90;;;;;;5031472;28;20552;-79
2021/08/25 02:59:13;;;;;;;23.85;10.60;;;12.90;99.90;;;;;;5031622;28;20613;-79
2021/08/25 03:01:39;;;;;;;17.30;9.77;;;13.00;99.90;;;;;;5038735;28;20025;-79
2021/08/25 03:04:04;;;;;;;19.20;10.00;;;13.00;99.90;;;;;;5050117;28;20412;-79
2021/08/25 03:06:30;;;;;;;25.40;10.07;;;13.00;99.90;;;;;;5051383;28;20679;-79
2021/08/25 03:08:55;;;;;;;18.17;9.43;;;13.00;99.90;;;;;;5051436;28;20104;-79
2021/08/25 03:11:21;;;;;;;14.85;9.50;;;13.00;99.90;;;;;;5048603;28;20104;-79
2021/08/25 03:13:46;;;;;;;18.95;9.45;;;13.00;99.90;;;;;;5030597;28;20036;-79
2021/08/25 03:16:12;;;;;;;17.75;7.68;;;13.00;99.90;;;;;;5031434;28;20096;-79
2021/08/25 03:18:38;;;;;;;17.92;9.27;;;12.90;99.90;;;;;;5031434;28;20017;-79
2021/08/25 03:21:03;;;;;;;16.17;7.82;;;12.90;99.90;;;;;;5030165;28;20025;-80
2021/08/25 03:23:29;;;;;;;10.57;7.85;;;12.90;99.90;;;;;;5045077;28;20030;-79
2021/08/25 03:25:54;;;;;;;13.65;7.28;;;12.90;99.90;;;;;;5053058;28;20029;-79
2021/08/25 03:28:20;;;;;;;9.52;6.43;;;12.80;99.90;;;;;;5053753;28;20425;-79
2021/08/25 03:30:45;;;;;;;12.43;5.50;;;12.60;99.90;;;;;;5054984;28;20116;-79
2021/08/25 03:33:11;;;;;;;7.07;5.20;;;12.50;99.90;;;;;;5043417;28;20026;-79
2021/08/25 03:35:37;;;;;;;9.43;5.30;;;12.40;99.90;;;;;;5034806;28;20600;-79
2021/08/25 03:38:03;;;;;;;7.70;5.00;;;12.50;99.90;;;;;;5034852;28;20083;-79
2021/08/25 03:40:28;;;;;;;9.10;5.25;;;12.40;99.90;;;;;;5034965;28;20045;-79
2021/08/25 03:42:54;;;;;;;17.10;5.55;;;12.40;99.90;;;;;;5039594;28;20040;-79
2021/08/25 03:45:20;;;;;;;10.75;5.82;;;12.50;99.90;;;;;;5054631;28;20029;-79
2021/08/25 03:47:45;;;;;;;10.13;5.80;;;12.60;99.90;;;;;;5053427;28;20378;-79
2021/08/25 03:50:11;;;;;;;10.18;4.47;;;12.80;99.90;;;;;;5054719;28;20067;-79
2021/08/25 03:52:36;;;;;;;8.80;4.68;;;12.90;99.90;;;;;;5052132;28;20297;-79
2021/08/25 03:55:02;;;;;;;11.00;4.28;;;13.00;99.90;;;;;;5034488;28;20029;-79
2021/08/25 03:57:28;;;;;;;9.68;4.55;;;13.10;99.90;;;;;;5033297;28;20029;-79
2021/08/25 03:59:53;;;;;;;12.70;4.40;;;13.10;99.90;;;;;;5034569;28;20029;-79
2021/08/25 04:02:19;;;;;;;12.18;4.68;;;13.20;99.90;;;;;;5034568;28;20113;-79
2021/08/25 04:04:44;;;;;;;9.85;4.00;;;13.30;99.90;;;;;;5048382;28;20116;-79
2021/08/25 04:07:10;;;;;;;8.30;3.60;;;13.30;99.90;;;;;;5054163;28;20103;-79
2021/08/25 04:09:36;;;;;;;8.18;3.80;;;13.40;99.90;;;;;;5054334;28;20068;-79
2021/08/25 04:12:01;;;;;;;4.88;3.20;;;13.40;99.90;;;;;;5053887;28;20021;-79
2021/08/25 04:14:27;;;;;;;10.95;3.67;;;13.40;99.90;;;;;;5043420;28;20039;-79
2021/08/25 04:16:52;;;;;;;16.65;3.90;;;13.50;99.90;;;;;;5034198;28;20437;-79
2021/08/25 04:19:18;;;;;;;10.43;3.35;;;13.40;99.90;;;;;;5034195;28;20064;-79
2021/08/25 04:21:43;;;;;;;3.22;2.53;;;13.40;99.90;;;;;;5034204;28;20104;-79
2021/08/25 04:24:09;;;;;;;6.35;3.47;;;13.50;99.90;;;;;;5036289;28;20021;-79
2021/08/25 04:26:35;;;;;;;12.45;3.70;;;13.50;99.90;;;;;;5033932;28;20450;-79
2021/08/25 04:29:00;;;;;;;10.80;3.40;;;13.50;99.90;;;;;;5033871;28;20026;-79
2021/08/25 04:31:26;;;;;;;6.60;3.40;;;13.50;99.90;;;;;;5034011;28;20030;-79
2021/08/25 04:33:51;;;;;;;7.03;3.70;;;13.60;99.90;;;;;;5033619;28;20026;-79
2021/08/25 04:36:17;;;;;;;11.30;3.90;;;13.70;99.90;;;;;;5052844;28;20025;-79
2021/08/25 04:38:42;;;;;;;13.82;3.47;;;13.70;99.90;;;;;;5052524;28;20490;-79
2021/08/25 04:41:10;;;;;;;5.63;3.42;;;13.70;99.90;;;;;;5053747;28;20024;-79
2021/08/25 04:43:36;;;;;;;8.65;3.33;;;13.70;99.90;;;;;;5052385;28;20485;-79
2021/08/25 04:46:01;;;;;;;11.38;3.10;;;13.70;99.90;;;;;;5038109;28;20034;-78
2021/08/25 04:48:27;;;;;;;15.25;3.42;;;13.70;99.90;;;;;;5033552;28;20025;-79
2021/08/25 04:50:52;;;;;;;5.78;2.63;;;13.70;99.90;;;;;;5033614;28;20029;-79
2021/08/25 04:53:18;;;;;;;5.57;2.30;;;13.70;99.90;;;;;;5033704;28;20052;-79
2021/08/25 04:55:44;;;;;;;7.28;2.50;;;13.80;99.90;;;;;;5042478;28;20017;-79
2021/08/25 04:58:09;;;;;;;15.73;2.97;;;13.90;99.90;;;;;;5052091;28;20083;-79
2021/08/25 05:00:35;;;;;;;4.47;2.38;;;14.00;99.90;;;;;;5052122;28;20436;-79
2021/08/25 05:03:00;;;;;;;8.88;2.63;;;14.20;99.90;;;;;;5052030;28;20439;-79
2021/08/25 05:05:26;;;;;;;5.80;1.77;;;14.20;99.90;;;;;;5048954;28;20033;-79
2021/08/25 05:07:51;;;;;;;6.90;2.22;;;14.20;99.90;;;;;;5039659;28;20375;-79
2021/08/25 05:10:18;;;;;;;8.52;2.50;;;14.30;99.90;;;;;;5053221;28;20029;-79
2021/08/25 05:12:44;;;;;;;7.07;2.30;;;14.30;99.90;;;;;;5052733;28;20090;-79
2021/08/25 05:15:10;;;;;;;6.63;2.42;;;14.40;99.90;;;;;;5052851;28;20017;-79
2021/08/25 05:17:36;;;;;;;6.93;2.20;;;14.50;99.90;;;;;;5033705;28;20036;-79
2021/08/25 05:20:03;;;;;;;15.65;3.45;;;14.50;99.90;;;;;;5033051;28;20060;-78
2021/08/25 05:22:28;;;;;;;7.55;2.08;;;14.50;99.90;;;;;;5033076;28;20448;-79
2021/08/25 05:24:54;;;;;;;5.25;2.10;;;14.50;99.90;;;;;;5032754;28;20029;-79
2021/08/25 05:27:19;;;;;;;8.77;2.83;;;14.60;99.90;;;;;;5046372;28;20136;-78
2021/08/25 05:29:45;;;;;;;14.23;3.05;;;14.60;99.90;;;;;;5052730;28;20100;-79
2021/08/25 05:32:10;;;;;;;5.88;2.05;;;14.60;99.90;;;;;;5052774;28;20024;-79
2021/08/25 05:34:36;;;;;;;5.20;1.90;;;14.60;99.90;;;;;;5049309;28;20098;-78
2021/08/25 05:37:01;;;;;;;7.38;2.15;;;14.70;99.90;;;;;;5043381;28;20040;-79
2021/08/25 05:39:27;;;;;;;9.57;2.30;;;14.80;99.90;;;;;;5032266;28;20044;-78
2021/08/25 05:41:53;;;;;;;15.52;3.30;;;14.90;99.90;;;;;;5032511;28;20164;-78
2021/08/25 05:44:18;;;;;;;9.65;2.55;;;14.90;99.90;;;;;;5032167;28;20040;-79
2021/08/25 05:46:44;;;;;;;5.10;1.80;;;15.00;99.90;;;;;;5032177;28;20052;-79
2021/08/25 05:49:09;;;;;;;9.93;2.35;;;15.00;99.90;;;;;;5045076;28;20689;-80
2021/08/25 05:51:35;;;;;;;3.28;1.98;;;15.10;99.90;;;;;;5052239;28;20540;-79
2021/08/25 05:54:00;;;;;;;9.63;2.65;;;15.10;99.90;;;;;;5052006;28;20029;-79
2021/08/25 05:56:26;;;;;;;8.57;2.08;;;15.10;99.90;;;;;;5052649;28;20021;-79
2021/08/25 05:58:51;;;;;;;10.57;1.88;;;15.10;99.90;;;;;;5051313;28;20032;-79
2021/08/25 06:01:17;;;;;;;7.85;2.33;;;15.20;99.90;;;;;;5052163;28;20028;-79
2021/08/25 06:03:43;;;;;;;9.80;3.03;;;15.20;99.90;;;;;;5052332;28;20591;-79
2021/08/25 06:06:11;;;;;;;10.93;3.10;;;15.30;99.90;;;;;;5051305;28;20021;-79
2021/08/25 06:08:37;;;;;;;6.43;1.85;;;15.30;99.90;;;;;;5048707;28;20013;-78
2021/08/25 06:11:03;;;;;;;6.60;2.22;;;15.20;99.90;;;;;;5031573;28;20029;-79
2021/08/25 06:13:28;;;;;;;8.00;1.80;;;15.20;99.90;;;;;;5030852;28;20052;-79
2021/08/25 06:15:54;;;;;;;11.85;3.13;;;15.20;99.90;;;;;;5031801;28;20684;-78
2021/08/25 06:18:19;;;;;;;8.73;2.10;;;15.30;99.90;;;;;;5030787;28;20091;-79
2021/08/25 06:20:45;;;;;;;8.45;2.35;;;15.20;99.90;;;;;;5033861;28;20441;-81
2021/08/25 06:23:11;;;;;;;12.57;2.67;;;15.30;99.90;;;;;;5050680;28;20064;-79
2021/08/25 06:25:36;;;;;;;8.63;1.98;;;15.30;99.90;;;;;;5051557;28;20512;-78
2021/08/25 06:28:02;;;;;;;3.83;1.60;;;15.30;99.90;;;;;;5051722;28;20090;-78
2021/08/25 06:30:28;;;;;;;9.60;2.22;;;15.30;99.90;;;;;;5039309;28;20029;-79
2021/08/25 06:32:54;;;;;;;13.77;2.25;;;15.30;99.90;;;;;;5030481;28;20500;-78
2021/08/25 06:35:21;;;;;;;6.38;2.22;;;15.30;99.90;;;;;;5031672;28;20021;-78
2021/08/25 06:37:47;;;;;;;15.13;2.97;;;15.30;99.90;;;;;;5031620;28;20021;-79
2021/08/25 06:40:13;;;;;;;14.85;2.70;;;15.40;99.90;;;;;;5038906;28;20052;-78
2021/08/25 06:42:38;;;;;;;4.50;2.10;;;15.40;99.90;;;;;;5049027;28;20104;-79
2021/08/25 06:45:06;;;;;;;5.15;2.05;;;15.40;99.90;;;;;;5031548;28;20430;-79
2021/08/25 06:47:31;;;;;;;8.35;2.08;;;15.40;99.90;;;;;;5030247;28;20029;-79
2021/08/25 06:49:57;;;;;;;11.48;2.30;;;15.40;99.90;;;;;;5033669;28;20514;-79
2021/08/25 06:52:22;;;;;;;10.45;2.78;;;15.50;99.90;;;;;;5051361;28;20032;-79
2021/08/25 06:54:48;;;;;;;5.55;2.95;;;15.40;99.90;;;;;;5050141;28;20029;-79
2021/08/25 06:57:13;;;;;;;9.15;3.42;;;15.40;99.90;;;;;;5043599;28;20039;-79
2021/08/25 06:59:39;;;;;;;6.57;3.38;;;15.40;99.90;;;;;;5032324;28;20026;-78
2021/08/25 07:02:05;;;;;;;8.15;3.42;;;15.40;99.90;;;;;;5035534;28;20052;-78
2021/08/25 07:04:30;;;;;;;6.43;3.60;;;15.40;99.90;;;;;;5035433;28;20389;-78
2021/08/25 07:06:56;;;;;;;7.68;3.45;;;15.30;99.90;;;;;;5035859;28;20033;-78
2021/08/25 07:09:21;;;;;;;12.40;3.40;;;15.20;99.90;;;;;;5041634;28;20035;-78
2021/08/25 07:11:47;;;;;;;9.55;3.60;;;15.30;99.90;;;;;;5038779;28;20104;-78
2021/08/25 07:14:13;;;;;;;9.07;3.10;;;15.30;99.90;;;;;;5036372;28;20613;-78
2021/08/25 07:16:38;;;;;;;7.28;2.92;;;15.40;99.90;;;;;;5053975;28;20025;-78
2021/08/25 07:19:04;;;;;;;4.72;2.55;;;15.40;99.90;;;;;;5054999;28;20028;-79
2021/08/25 07:21:31;;;;;;;8.48;3.20;;;15.40;99.90;;;;;;5055213;28;20032;-78
2021/08/25 07:23:56;;;;;;;12.35;3.58;;;15.40;99.90;;;;;;5036056;28;20053;-78
2021/08/25 07:26:22;;;;;;;7.95;2.90;;;15.40;99.90;;;;;;5041704;28;20068;-78
2021/08/25 07:28:48;;;;;;;11.00;3.78;;;15.60;99.90;;;;;;5036024;28;20079;-79
2021/08/25 07:31:14;;;;;;;11.38;5.32;;;15.50;99.90;;;;;;5035034;28;20066;-80
2021/08/25 07:33:40;;;;;;;7.22;3.47;;;15.60;99.90;;;;;;5034881;28;20470;-81
2021/08/25 07:36:08;;;;;;;20.52;5.03;;;15.50;99.90;;;;;;5033656;28;20042;-79
2021/08/25 07:38:33;;;;;;;11.38;4.57;;;15.70;99.90;;;;;;5035017;28;20030;-80
2021/08/25 07:40:59;;;;;;;10.02;4.70;;;15.70;99.90;;;;;;5035033;28;20404;-79
2021/08/25 07:43:24;;;;;;;19.25;5.22;;;15.80;99.90;;;;;;5034904;28;20033;-79
2021/08/25 07:45:50;;;;;;;14.13;5.75;;;15.80;99.90;;;;;;5034533;28;20025;-79
2021/08/25 07:48:15;;;;;;;12.95;4.97;;;15.80;99.90;;;;;;5041095;28;20025;-79
2021/08/25 07:50:41;;;;;;;14.43;4.97;;;15.80;99.90;;;;;;5033732;28;20385;-81
2021/08/25 07:53:07;;;;;;;9.88;4.88;;;15.90;99.90;;;;;;5034596;28;20029;-80
2021/08/25 07:55:32;;;;;;;17.10;6.50;;;15.90;99.90;;;;;;5034446;28;20048;-79
2021/08/25 07:57:58;;;;;;;7.65;4.93;;;15.90;99.90;;;;;;5035041;28;20041;-79
2021/08/25 08:00:23;;;;;;;17.00;5.85;;;15.90;99.90;;;;;;5040937;28;20059;-79
2021/08/25 08:02:49;;;;;;;9.02;5.10;;;15.80;99.90;;;;;;5054349;28;20523;-80
2021/08/25 08:05:15;;;;;;;16.98;5.82;;;15.90;99.90;;;;;;5054048;28;20037;-80
2021/08/25 08:07:41;;;;;;;18.50;4.70;;;15.70;99.90;;;;;;5054230;28;20052;-79
2021/08/25 08:10:06;;;;;;;15.15;5.90;;;15.70;99.90;;;;;;5035040;28;20390;-79
2021/08/25 08:12:32;;;;;;;13.55;6.13;;;15.60;99.90;;;;;;5033614;28;20119;-80
2021/08/25 08:14:58;;;;;;;15.35;5.93;;;15.50;99.90;;;;;;5034104;28;20017;-78
2021/08/25 08:17:23;;;;;;;13.38;5.40;;;15.60;99.90;;;;;;5034138;28;20378;-81
2021/08/25 08:19:50;;;;;;;10.95;4.88;;;15.70;99.90;;;;;;5046757;28;20025;-81
2021/08/25 08:22:15;;;;;;;24.80;6.13;;;15.60;99.90;;;;;;5053825;28;20116;-81
2021/08/25 08:24:41;;;;;;;16.83;5.63;;;15.60;99.90;;;;;;5032500;28;20484;-80
2021/08/25 08:27:07;;;;;;;13.90;6.15;;;15.60;99.90;;;;;;5033585;28;20025;-82
2021/08/25 08:29:34;;;;;;;19.55;7.47;;;15.70;99.90;;;;;;5032767;28;20053;-82
2021/08/25 08:32:00;;;;;;;16.17;5.97;;;15.70;99.90;;;;;;5033130;28;20033;-80
2021/08/25 08:34:26;;;;;;;22.85;6.75;;;15.70;99.90;;;;;;5033621;28;20029;-79
2021/08/25 08:36:52;;;;;;;21.23;7.43;;;15.80;99.90;;;;;;5033763;28;20028;-81
2021/08/25 08:39:18;;;;;;;12.85;5.97;;;15.80;99.90;;;;;;5037532;28;20080;-80
2021/08/25 08:41:43;;;;;;;24.30;7.95;;;15.80;99.90;;;;;;5052495;28;20478;-80
2021/08/25 08:44:12;;;;;;;21.38;6.80;;;15.80;99.90;;;;;;5044244;28;20038;-80
2021/08/25 08:46:40;;;;;;;15.10;6.75;;;15.80;99.90;;;;;;5033433;28;20036;-80
2021/08/25 08:49:07;;;;;;;18.17;6.78;;;15.70;99.90;;;;;;5033589;28;20046;-80
2021/08/25 08:51:36;;;;;;;17.15;7.07;;;15.80;99.90;;;;;;5034319;28;20030;-80
2021/08/25 08:54:01;;;;;;;18.40;7.10;;;15.80;99.90;;;;;;5046932;28;20033;-81
2021/08/25 08:56:27;;;;;;;22.25;6.68;;;15.70;99.90;;;;;;5053408;28;20520;-81
2021/08/25 08:58:54;;;;;;;22.98;6.85;;;15.70;99.90;;;;;;5053297;28;20029;-81
2021/08/25 09:01:19;;;;;;;25.48;6.88;;;15.80;99.90;;;;;;5038052;28;20017;-82
2021/08/25 09:03:45;;;;;;;15.65;5.68;;;15.90;99.90;;;;;;5033150;28;20505;-80
2021/08/25 09:06:11;;;;;;;19.08;5.57;;;16.10;99.90;;;;;;5033237;28;20140;-80
2021/08/25 09:08:40;;;;;;;17.75;5.70;;;16.10;99.90;;;;;;5031816;28;20026;-81
2021/08/25 09:11:13;;;;;;;24.55;4.80;;;16.30;99.90;;;;;;5048708;28;20033;-81
2021/08/25 09:13:48;;;;;;;13.18;5.30;;;16.40;99.90;;;;;;5033003;28;20021;-80
2021/08/25 09:16:28;;;;;;;17.95;4.80;;;16.20;99.90;;;;;;5031684;28;20026;-80
2021/08/25 09:19:03;;;;;;;12.00;5.35;;;16.20;99.90;;;;;;5033164;28;20097;-80
2021/08/25 09:21:35;;;;;;;21.33;5.57;;;16.10;99.90;;;;;;5037019;28;20099;-80
2021/08/25 09:24:02;;;;;;;13.53;5.87;;;16.10;99.90;;;;;;5051231;28;20029;-80
2021/08/25 09:26:28;;;;;;;15.02;5.57;;;16.00;99.90;;;;;;5052655;28;20106;-80
2021/08/25 09:28:53;;;;;;;14.40;5.68;;;15.80;99.90;;;;;;5051562;28;20477;-80
2021/08/25 09:31:19;;;;;;;19.67;5.95;;;15.70;99.90;;;;;;5045918;28;20021;-80
2021/08/25 09:33:47;;;;;;;13.40;5.68;;;15.60;99.90;;;;;;5031267;28;20033;-81
2021/08/25 09:36:19;;;;;;;19.00;5.15;;;15.70;99.90;;;;;;5031378;28;20378;-81
2021/08/25 09:38:56;;;;;;;15.95;4.93;;;15.70;99.90;;;;;;5032607;28;20109;-80
2021/08/25 09:41:22;;;;;;;24.10;5.05;;;15.60;99.90;;;;;;5035453;28;20409;-80
2021/08/25 09:43:49;;;;;;;12.25;5.43;;;15.60;99.90;;;;;;5050945;28;20098;-83
2021/08/25 09:46:25;;;;;;;14.45;5.97;;;15.80;99.90;;;;;;5044241;28;20040;-81
2021/08/25 09:48:57;;;;;;;12.38;4.25;;;15.80;99.90;;;;;;5032562;28;20497;-79
2021/08/25 09:51:25;;;;;;;12.10;4.63;;;15.90;99.90;;;;;;5032241;28;20087;-80
2021/08/25 09:54:03;;;;;;;12.75;4.70;;;16.00;99.90;;;;;;5032244;28;20032;-81
2021/08/25 09:56:32;;;;;;;13.55;4.00;;;16.00;99.90;;;;;;5032376;28;20043;-80
2021/08/25 09:58:58;;;;;;;12.68;4.43;;;16.10;99.90;;;;;;5031026;28;20022;-81
2021/08/25 10:01:24;;;;;;;16.55;4.03;;;16.10;99.90;;;;;;5032184;28;20080;-81
2021/08/25 10:03:50;;;;;;;13.25;3.60;;;16.20;99.90;;;;;;5049179;28;20025;-81
2021/08/25 10:06:18;;;;;;;8.73;3.20;;;16.40;99.90;;;;;;5050772;28;20053;-80
2021/08/25 10:08:44;;;;;;;9.85;3.45;;;16.70;99.90;;;;;;5051133;28;20456;-81
2021/08/25 10:11:11;;;;;;;5.00;3.00;;;16.60;99.90;;;;;;5051902;28;20021;-80
2021/08/25 10:13:37;;;;;;;12.07;3.50;;;16.70;99.90;;;;;;5040909;28;20076;-79
2021/08/25 10:16:03;;;;;;;10.75;4.35;;;16.70;99.90;;;;;;5050539;28;20389;-80
2021/08/25 10:18:40;;;;;;;9.20;3.47;;;16.80;99.90;;;;;;5042153;28;20029;-80
2021/08/25 10:21:42;;;;;;;9.38;3.80;;;16.80;99.90;;;;;;5050692;28;20515;-79
2021/08/25 10:24:08;;;;;;;14.00;4.75;;;16.40;99.90;;;;;;5029308;28;20067;-82
2021/08/25 10:26:59;;;;;;;11.00;3.95;;;16.40;99.90;;;;;;5047169;28;20462;-80
2021/08/25 10:29:29;;;;;;;14.57;4.75;;;16.30;99.90;;;;;;5036343;28;20522;-82
2021/08/25 10:31:56;;;;;;;10.88;4.65;;;16.30;99.90;;;;;;5031726;28;20036;-82
2021/08/25 10:34:25;;;;;;;12.60;5.13;;;16.10;99.90;;;;;;5029877;28;20033;-80
2021/08/25 10:36:52;;;;;;;17.55;5.22;;;16.10;99.90;;;;;;5031608;28;20029;-82
2021/08/25 10:39:38;;;;;;;28.20;5.72;;;15.90;99.90;;;;;;5041387;28;20029;-81
2021/08/25 10:42:05;;;;;;;14.98;5.53;;;15.80;99.90;;;;;;5051697;28;20035;-82
2021/08/25 10:44:40;;;;;;;19.23;5.80;;;15.80;99.90;;;;;;5050193;28;20067;-80
2021/08/25 10:47:11;;;;;;;24.08;6.57;;;15.80;99.90;;;;;;5050160;28;20588;-81
2021/08/25 10:49:39;;;;;;;12.30;5.40;;;15.70;99.90;;;;;;5041513;28;20049;-82
2021/08/25 10:52:13;;;;;;;11.02;5.53;;;15.90;99.90;;;;;;5031518;28;20034;-81
2021/08/25 10:54:57;;;;;;;14.23;5.43;;;15.90;99.90;;;;;;5031602;28;20021;-81
2021/08/25 10:57:24;;;;;;;11.95;5.38;;;16.10;99.90;;;;;;5031601;28;20029;-80
2021/08/25 10:59:51;;;;;;;11.45;5.18;;;16.10;99.90;;;;;;5039937;28;20071;-82
2021/08/25 11:02:17;;;;;;;14.70;5.32;;;16.00;99.90;;;;;;5051235;28;20447;-82
2021/08/25 11:04:43;;;;;;;10.25;4.30;;;16.00;99.90;;;;;;5049923;28;20029;-81
2021/08/25 11:07:12;;;;;;;13.32;5.03;;;16.00;99.90;;;;;;5051263;28;20029;-80
2021/08/25 11:09:46;;;;;;;9.65;4.80;;;15.90;99.90;;;;;;5047007;28;20036;-80
2021/08/25 11:12:13;;;;;;;15.55;5.65;;;15.90;99.90;;;;;;5030144;28;20512;-82
2021/08/25 11:14:50;;;;;;;16.52;4.85;;;15.90;99.90;;;;;;5029837;28;20029;-81
2021/08/25 11:17:19;;;;;;;9.45;4.47;;;16.10;99.90;;;;;;5030084;28;20031;-80
2021/08/25 11:19:53;;;;;;;7.53;4.63;;;16.20;99.90;;;;;;5043583;28;20036;-82
2021/08/25 11:22:28;;;;;;;10.90;4.18;;;16.50;99.90;;;;;;5051272;28;20029;-81
2021/08/25 11:25:05;;;;;;;16.50;4.72;;;16.80;99.90;;;;;;5049662;28;20122;-80
2021/08/25 11:27:33;;;;;;;18.10;3.97;;;16.90;99.90;;;;;;5051155;28;20021;-81
2021/08/25 11:30:06;;;;;;;16.52;4.75;;;17.00;99.90;;;;;;5045971;28;20033;-81
2021/08/25 11:32:33;;;;;;;14.48;4.85;;;17.00;99.90;;;;;;5040909;28;20079;-82
2021/08/25 11:34:59;;;;;;;10.50;5.15;;;17.00;99.90;;;;;;5050854;28;20025;-82
2021/08/25 11:37:25;;;;;;;13.77;4.32;;;17.00;99.90;;;;;;5038979;28;20038;-81
2021/08/25 11:40:03;;;;;;;11.82;4.72;;;17.00;99.90;;;;;;5031262;28;20095;-81
2021/08/25 11:42:33;;;;;;;10.95;3.88;;;16.90;99.90;;;;;;5037563;28;20114;-83
2021/08/25 11:45:00;;;;;;;12.95;4.90;;;16.90;99.90;;;;;;5050965;28;20025;-83
2021/08/25 11:47:26;;;;;;;20.20;4.90;;;16.80;99.90;;;;;;5044663;28;20032;-83
2021/08/25 11:49:54;;;;;;;14.55;5.35;;;16.70;99.90;;;;;;5033400;28;20028;-82
2021/08/25 11:52:30;;;;;;;13.80;4.28;;;16.80;99.90;;;;;;5038373;28;20052;-84
2021/08/25 11:55:00;;;;;;;11.48;4.35;;;16.80;99.90;;;;;;5053112;28;20051;-83
2021/08/25 11:57:45;;;;;;;12.85;4.30;;;16.80;99.90;;;;;;5054626;28;20057;-83
2021/08/25 12:00:16;;;;;;;9.02;3.88;;;16.90;99.90;;;;;;5054462;28;20163;-84
2021/08/25 12:02:59;;;;;;;5.55;3.45;;;17.30;99.90;;;;;;5050393;28;20028;-84
2021/08/25 12:05:30;;;;;;;13.45;3.97;;;17.80;99.90;;;;;;5034323;28;20049;-83
2021/08/25 12:08:04;;;;;;;9.77;4.10;;;18.20;99.90;;;;;;5032951;28;20026;-85
2021/08/25 12:10:31;;;;;;;17.10;4.68;;;17.80;99.90;;;;;;5033272;28;20454;-82
2021/08/25 12:12:56;;;;;;;10.55;3.45;;;17.90;99.90;;;;;;5035731;28;20493;-85
2021/08/25 12:15:49;;;;;;;18.15;4.35;;;17.70;99.90;;;;;;5052782;28;20032;-84
2021/08/25 12:18:16;;;;;;;11.15;3.88;;;17.50;99.90;;;;;;5054034;28;20610;-84
2021/08/25 12:20:45;;;;;;;9.60;3.35;;;17.50;99.90;;;;;;5053001;28;20056;-85
2021/08/25 12:23:12;;;;;;;15.25;4.15;;;17.50;99.90;;;;;;5053240;28;20389;-85
2021/08/25 12:25:43;;;;;;;8.75;3.17;;;17.50;99.90;;;;;;5035932;28;20036;-88
2021/08/25 12:28:35;;;;;;;11.45;2.75;;;17.50;99.90;;;;;;5034037;28;20036;-86
2021/08/25 12:31:22;;;;;;;12.73;3.25;;;17.30;99.90;;;;;;5034215;28;20018;-86
2021/08/25 12:33:51;;;;;;;10.00;3.10;;;17.20;99.90;;;;;;5033861;28;20029;-85
2021/08/25 12:36:21;;;;;;;8.60;2.50;;;17.10;99.90;;;;;;5051874;28;20033;-85
2021/08/25 12:38:49;;;;;;;8.55;2.80;;;17.20;99.90;;;;;;5053829;28;20029;-85
2021/08/25 12:41:15;;;;;;;13.02;3.28;;;17.20;99.90;;;;;;5052359;28;20029;-84
2021/08/25 12:43:40;;;;;;;8.63;2.30;;;17.20;99.90;;;;;;5052340;28;20112;-85